sensor_id;sensor_type;location;lat;lon;timestamp;P1;durP1;ratioP1;P2;durP2;ratioP2
70761;SDS011;58360;0.000;0.000;2023-05-14T00:01:24;36.85;;;26.73;;
70761;SDS011;58360;0.000;0.000;2023-05-14T00:03:49;40.00;;;27.98;;
70761;SDS011;58360;0.000;0.000;2023-05-14T00:06:15;36.05;;;26.60;;
70761;SDS011;58360;0.000;0.000;2023-05-14T00:08:41;37.03;;;27.52;;
70761;SDS011;58360;0.000;0.000;2023-05-14T00:11:06;42.78;;;28.33;;
70761;SDS011;58360;0.000;0.000;2023-05-14T00:13:33;41.88;;;29.85;;
70761;SDS011;58360;0.000;0.000;2023-05-14T00:15:59;49.50;;;30.52;;
70761;SDS011;58360;0.000;0.000;2023-05-14T00:18:25;43.03;;;28.95;;
70761;SDS011;58360;0.000;0.000;2023-05-14T00:20:50;40.35;;;27.98;;
70761;SDS011;58360;0.000;0.000;2023-05-14T00:23:19;42.45;;;27.90;;
70761;SDS011;58360;0.000;0.000;2023-05-14T00:25:45;42.13;;;28.67;;
70761;SDS011;58360;0.000;0.000;2023-05-14T00:28:11;45.92;;;31.05;;
70761;SDS011;58360;0.000;0.000;2023-05-14T00:30:36;43.80;;;31.70;;
70761;SDS011;58360;0.000;0.000;2023-05-14T00:33:03;41.90;;;29.05;;
70761;SDS011;58360;0.000;0.000;2023-05-14T00:35:29;43.42;;;29.48;;
70761;SDS011;58360;0.000;0.000;2023-05-14T00:37:55;47.10;;;31.23;;
70761;SDS011;58360;0.000;0.000;2023-05-14T00:40:22;41.65;;;29.50;;
70761;SDS011;58360;0.000;0.000;2023-05-14T00:42:50;42.05;;;29.80;;
70761;SDS011;58360;0.000;0.000;2023-05-14T00:45:16;42.33;;;28.20;;
70761;SDS011;58360;0.000;0.000;2023-05-14T00:47:42;38.78;;;28.20;;
70761;SDS011;58360;0.000;0.000;2023-05-14T00:50:08;39.20;;;28.35;;
70761;SDS011;58360;0.000;0.000;2023-05-14T00:52:35;39.67;;;29.23;;
70761;SDS011;58360;0.000;0.000;2023-05-14T00:55:02;36.63;;;23.23;;
70761;SDS011;58360;0.000;0.000;2023-05-14T00:57:30;37.60;;;29.25;;
70761;SDS011;58360;0.000;0.000;2023-05-14T00:59:56;43.72;;;27.88;;
70761;SDS011;58360;0.000;0.000;2023-05-14T01:02:22;34.72;;;27.08;;
70761;SDS011;58360;0.000;0.000;2023-05-14T01:04:48;36.17;;;28.00;;
70761;SDS011;58360;0.000;0.000;2023-05-14T01:09:52;39.88;;;25.80;;
70761;SDS011;58360;0.000;0.000;2023-05-14T01:17:58;37.63;;;24.73;;
70761;SDS011;58360;0.000;0.000;2023-05-14T01:20:25;38.75;;;28.25;;
70761;SDS011;58360;0.000;0.000;2023-05-14T01:22:51;36.40;;;25.50;;
70761;SDS011;58360;0.000;0.000;2023-05-14T01:25:17;35.47;;;25.75;;
70761;SDS011;58360;0.000;0.000;2023-05-14T01:27:49;38.05;;;26.85;;
70761;SDS011;58360;0.000;0.000;2023-05-14T01:30:23;39.70;;;28.42;;
70761;SDS011;58360;0.000;0.000;2023-05-14T01:32:55;42.58;;;27.92;;
70761;SDS011;58360;0.000;0.000;2023-05-14T01:35:24;39.20;;;28.20;;
70761;SDS011;58360;0.000;0.000;2023-05-14T01:37:52;35.78;;;27.70;;
70761;SDS011;58360;0.000;0.000;2023-05-14T01:40:21;47.13;;;28.55;;
70761;SDS011;58360;0.000;0.000;2023-05-14T01:42:48;44.08;;;29.20;;
70761;SDS011;58360;0.000;0.000;2023-05-14T01:45:16;43.05;;;29.63;;
70761;SDS011;58360;0.000;0.000;2023-05-14T01:47:42;37.00;;;29.15;;
70761;SDS011;58360;0.000;0.000;2023-05-14T01:50:08;41.80;;;29.80;;
70761;SDS011;58360;0.000;0.000;2023-05-14T01:52:34;38.38;;;27.55;;
70761;SDS011;58360;0.000;0.000;2023-05-14T01:54:59;44.22;;;30.58;;
70761;SDS011;58360;0.000;0.000;2023-05-14T01:57:25;42.10;;;28.08;;
70761;SDS011;58360;0.000;0.000;2023-05-14T01:59:51;44.58;;;30.55;;
70761;SDS011;58360;0.000;0.000;2023-05-14T02:02:16;40.05;;;31.58;;
70761;SDS011;58360;0.000;0.000;2023-05-14T02:04:42;35.90;;;29.10;;
70761;SDS011;58360;0.000;0.000;2023-05-14T02:07:07;42.83;;;30.92;;
70761;SDS011;58360;0.000;0.000;2023-05-14T02:09:33;45.03;;;31.00;;
70761;SDS011;58360;0.000;0.000;2023-05-14T02:11:59;40.10;;;30.13;;
70761;SDS011;58360;0.000;0.000;2023-05-14T02:14:24;42.67;;;30.17;;
70761;SDS011;58360;0.000;0.000;2023-05-14T02:16:50;41.42;;;30.33;;
70761;SDS011;58360;0.000;0.000;2023-05-14T02:19:16;45.03;;;31.38;;
70761;SDS011;58360;0.000;0.000;2023-05-14T02:21:41;41.63;;;31.40;;
70761;SDS011;58360;0.000;0.000;2023-05-14T02:24:07;49.47;;;32.13;;
70761;SDS011;58360;0.000;0.000;2023-05-14T02:26:32;44.08;;;30.45;;
70761;SDS011;58360;0.000;0.000;2023-05-14T02:28:58;43.65;;;32.45;;
70761;SDS011;58360;0.000;0.000;2023-05-14T02:31:24;40.60;;;31.42;;
70761;SDS011;58360;0.000;0.000;2023-05-14T02:33:49;43.75;;;29.40;;
70761;SDS011;58360;0.000;0.000;2023-05-14T02:36:15;42.88;;;29.85;;
70761;SDS011;58360;0.000;0.000;2023-05-14T02:38:41;44.45;;;28.23;;
70761;SDS011;58360;0.000;0.000;2023-05-14T02:41:06;38.22;;;29.35;;
70761;SDS011;58360;0.000;0.000;2023-05-14T02:43:32;37.38;;;29.73;;
70761;SDS011;58360;0.000;0.000;2023-05-14T02:45:57;43.20;;;27.48;;
70761;SDS011;58360;0.000;0.000;2023-05-14T02:48:23;40.97;;;29.33;;
70761;SDS011;58360;0.000;0.000;2023-05-14T02:50:49;44.20;;;30.05;;
70761;SDS011;58360;0.000;0.000;2023-05-14T02:53:16;42.17;;;29.38;;
70761;SDS011;58360;0.000;0.000;2023-05-14T02:55:41;40.30;;;29.80;;
70761;SDS011;58360;0.000;0.000;2023-05-14T02:58:07;39.00;;;29.30;;
70761;SDS011;58360;0.000;0.000;2023-05-14T03:00:33;40.50;;;29.92;;
70761;SDS011;58360;0.000;0.000;2023-05-14T03:02:59;38.92;;;27.80;;
70761;SDS011;58360;0.000;0.000;2023-05-14T03:05:24;46.53;;;29.77;;
70761;SDS011;58360;0.000;0.000;2023-05-14T03:07:50;41.85;;;30.30;;
70761;SDS011;58360;0.000;0.000;2023-05-14T03:10:17;40.40;;;28.92;;
70761;SDS011;58360;0.000;0.000;2023-05-14T03:12:43;42.05;;;29.52;;
70761;SDS011;58360;0.000;0.000;2023-05-14T03:15:09;41.20;;;29.20;;
70761;SDS011;58360;0.000;0.000;2023-05-14T03:17:35;41.00;;;28.67;;
70761;SDS011;58360;0.000;0.000;2023-05-14T03:20:01;37.08;;;28.92;;
70761;SDS011;58360;0.000;0.000;2023-05-14T03:22:27;43.97;;;29.75;;
70761;SDS011;58360;0.000;0.000;2023-05-14T03:24:53;47.67;;;29.80;;
70761;SDS011;58360;0.000;0.000;2023-05-14T03:27:18;43.15;;;31.02;;
70761;SDS011;58360;0.000;0.000;2023-05-14T03:29:44;40.83;;;29.73;;
70761;SDS011;58360;0.000;0.000;2023-05-14T03:32:10;37.47;;;28.80;;
70761;SDS011;58360;0.000;0.000;2023-05-14T03:34:36;40.83;;;30.05;;
70761;SDS011;58360;0.000;0.000;2023-05-14T03:37:02;45.70;;;31.00;;
70761;SDS011;58360;0.000;0.000;2023-05-14T03:39:27;43.13;;;30.08;;
70761;SDS011;58360;0.000;0.000;2023-05-14T03:41:53;46.42;;;29.15;;
70761;SDS011;58360;0.000;0.000;2023-05-14T03:44:21;43.80;;;30.38;;
70761;SDS011;58360;0.000;0.000;2023-05-14T03:46:46;47.65;;;32.40;;
70761;SDS011;58360;0.000;0.000;2023-05-14T03:49:12;40.53;;;29.90;;
70761;SDS011;58360;0.000;0.000;2023-05-14T03:51:38;40.50;;;30.05;;
70761;SDS011;58360;0.000;0.000;2023-05-14T03:54:03;42.42;;;29.80;;
70761;SDS011;58360;0.000;0.000;2023-05-14T03:56:29;38.92;;;29.75;;
70761;SDS011;58360;0.000;0.000;2023-05-14T03:58:55;40.63;;;29.60;;
70761;SDS011;58360;0.000;0.000;2023-05-14T04:01:20;45.33;;;30.45;;
70761;SDS011;58360;0.000;0.000;2023-05-14T04:03:46;41.40;;;28.75;;
70761;SDS011;58360;0.000;0.000;2023-05-14T04:06:11;41.38;;;28.10;;
70761;SDS011;58360;0.000;0.000;2023-05-14T04:08:37;41.92;;;29.83;;
70761;SDS011;58360;0.000;0.000;2023-05-14T04:11:03;48.38;;;30.20;;
70761;SDS011;58360;0.000;0.000;2023-05-14T04:13:28;41.28;;;29.33;;
70761;SDS011;58360;0.000;0.000;2023-05-14T04:15:54;44.00;;;29.88;;
70761;SDS011;58360;0.000;0.000;2023-05-14T04:18:20;40.90;;;29.55;;
70761;SDS011;58360;0.000;0.000;2023-05-14T04:20:45;41.42;;;29.27;;
70761;SDS011;58360;0.000;0.000;2023-05-14T04:23:11;47.58;;;30.25;;
70761;SDS011;58360;0.000;0.000;2023-05-14T04:25:37;40.45;;;29.08;;
70761;SDS011;58360;0.000;0.000;2023-05-14T04:28:02;42.17;;;29.15;;
70761;SDS011;58360;0.000;0.000;2023-05-14T04:30:28;44.20;;;27.92;;
70761;SDS011;58360;0.000;0.000;2023-05-14T04:32:54;43.67;;;28.90;;
70761;SDS011;58360;0.000;0.000;2023-05-14T04:35:19;42.20;;;28.52;;
70761;SDS011;58360;0.000;0.000;2023-05-14T04:37:45;43.75;;;30.42;;
70761;SDS011;58360;0.000;0.000;2023-05-14T04:40:11;42.13;;;29.90;;
70761;SDS011;58360;0.000;0.000;2023-05-14T04:42:37;43.03;;;29.90;;
70761;SDS011;58360;0.000;0.000;2023-05-14T04:45:03;44.67;;;29.95;;
70761;SDS011;58360;0.000;0.000;2023-05-14T04:47:30;47.20;;;29.05;;
70761;SDS011;58360;0.000;0.000;2023-05-14T04:49:56;40.70;;;29.48;;
70761;SDS011;58360;0.000;0.000;2023-05-14T04:52:22;43.65;;;31.13;;
70761;SDS011;58360;0.000;0.000;2023-05-14T04:54:48;40.58;;;29.42;;
70761;SDS011;58360;0.000;0.000;2023-05-14T04:57:14;48.35;;;29.67;;
70761;SDS011;58360;0.000;0.000;2023-05-14T04:59:40;42.20;;;28.92;;
70761;SDS011;58360;0.000;0.000;2023-05-14T05:02:06;44.08;;;28.98;;
70761;SDS011;58360;0.000;0.000;2023-05-14T05:04:31;44.33;;;29.63;;
70761;SDS011;58360;0.000;0.000;2023-05-14T05:06:57;45.45;;;30.23;;
70761;SDS011;58360;0.000;0.000;2023-05-14T05:09:23;41.22;;;28.98;;
70761;SDS011;58360;0.000;0.000;2023-05-14T05:11:48;43.60;;;30.45;;
70761;SDS011;58360;0.000;0.000;2023-05-14T05:14:14;42.30;;;29.48;;
70761;SDS011;58360;0.000;0.000;2023-05-14T05:16:40;47.15;;;29.02;;
70761;SDS011;58360;0.000;0.000;2023-05-14T05:19:05;44.58;;;28.98;;
70761;SDS011;58360;0.000;0.000;2023-05-14T05:21:31;40.88;;;29.42;;
70761;SDS011;58360;0.000;0.000;2023-05-14T05:23:57;43.80;;;30.13;;
70761;SDS011;58360;0.000;0.000;2023-05-14T05:26:23;41.72;;;28.70;;
70761;SDS011;58360;0.000;0.000;2023-05-14T05:28:50;38.95;;;27.08;;
70761;SDS011;58360;0.000;0.000;2023-05-14T05:31:16;43.80;;;29.83;;
70761;SDS011;58360;0.000;0.000;2023-05-14T05:33:42;47.38;;;28.73;;
70761;SDS011;58360;0.000;0.000;2023-05-14T05:36:08;40.63;;;27.88;;
70761;SDS011;58360;0.000;0.000;2023-05-14T05:38:34;39.30;;;26.92;;
70761;SDS011;58360;0.000;0.000;2023-05-14T05:40:59;37.95;;;25.50;;
70761;SDS011;58360;0.000;0.000;2023-05-14T05:43:25;35.10;;;26.75;;
70761;SDS011;58360;0.000;0.000;2023-05-14T05:45:52;33.33;;;24.63;;
70761;SDS011;58360;0.000;0.000;2023-05-14T05:48:18;37.38;;;25.52;;
70761;SDS011;58360;0.000;0.000;2023-05-14T05:50:45;38.65;;;24.73;;
70761;SDS011;58360;0.000;0.000;2023-05-14T05:53:13;35.95;;;25.35;;
70761;SDS011;58360;0.000;0.000;2023-05-14T05:55:40;41.67;;;28.20;;
70761;SDS011;58360;0.000;0.000;2023-05-14T05:58:06;42.70;;;27.98;;
70761;SDS011;58360;0.000;0.000;2023-05-14T06:00:32;43.33;;;30.52;;
70761;SDS011;58360;0.000;0.000;2023-05-14T06:02:58;48.08;;;30.30;;
70761;SDS011;58360;0.000;0.000;2023-05-14T06:05:23;46.72;;;30.95;;
70761;SDS011;58360;0.000;0.000;2023-05-14T06:07:49;51.35;;;31.88;;
70761;SDS011;58360;0.000;0.000;2023-05-14T06:10:17;45.17;;;30.15;;
70761;SDS011;58360;0.000;0.000;2023-05-14T06:12:43;49.88;;;32.38;;
70761;SDS011;58360;0.000;0.000;2023-05-14T06:15:08;49.42;;;32.13;;
70761;SDS011;58360;0.000;0.000;2023-05-14T06:17:36;52.00;;;33.17;;
70761;SDS011;58360;0.000;0.000;2023-05-14T06:20:02;45.58;;;30.50;;
70761;SDS011;58360;0.000;0.000;2023-05-14T06:22:29;49.28;;;30.52;;
70761;SDS011;58360;0.000;0.000;2023-05-14T06:24:55;50.80;;;33.08;;
70761;SDS011;58360;0.000;0.000;2023-05-14T06:27:21;45.95;;;30.15;;
70761;SDS011;58360;0.000;0.000;2023-05-14T06:29:46;50.45;;;31.17;;
70761;SDS011;58360;0.000;0.000;2023-05-14T06:32:12;43.55;;;29.10;;
70761;SDS011;58360;0.000;0.000;2023-05-14T06:34:39;52.85;;;32.60;;
70761;SDS011;58360;0.000;0.000;2023-05-14T06:37:06;43.25;;;28.70;;
70761;SDS011;58360;0.000;0.000;2023-05-14T06:39:33;41.38;;;24.98;;
70761;SDS011;58360;0.000;0.000;2023-05-14T06:41:59;45.20;;;28.20;;
70761;SDS011;58360;0.000;0.000;2023-05-14T06:44:25;44.90;;;28.85;;
70761;SDS011;58360;0.000;0.000;2023-05-14T06:46:51;44.67;;;26.98;;
70761;SDS011;58360;0.000;0.000;2023-05-14T06:49:17;35.25;;;23.25;;
70761;SDS011;58360;0.000;0.000;2023-05-14T06:51:42;32.65;;;22.33;;
70761;SDS011;58360;0.000;0.000;2023-05-14T06:54:08;27.88;;;19.80;;
70761;SDS011;58360;0.000;0.000;2023-05-14T06:56:34;29.42;;;17.92;;
70761;SDS011;58360;0.000;0.000;2023-05-14T06:58:59;25.73;;;17.48;;
70761;SDS011;58360;0.000;0.000;2023-05-14T07:01:25;27.05;;;17.58;;
70761;SDS011;58360;0.000;0.000;2023-05-14T07:03:51;25.27;;;16.85;;
70761;SDS011;58360;0.000;0.000;2023-05-14T07:06:16;24.13;;;16.95;;
70761;SDS011;58360;0.000;0.000;2023-05-14T07:08:42;25.75;;;15.88;;
70761;SDS011;58360;0.000;0.000;2023-05-14T07:11:11;29.00;;;17.05;;
70761;SDS011;58360;0.000;0.000;2023-05-14T07:13:37;26.00;;;16.70;;
70761;SDS011;58360;0.000;0.000;2023-05-14T07:16:04;29.42;;;17.73;;
70761;SDS011;58360;0.000;0.000;2023-05-14T07:18:30;25.05;;;15.57;;
70761;SDS011;58360;0.000;0.000;2023-05-14T07:20:56;22.85;;;14.25;;
70761;SDS011;58360;0.000;0.000;2023-05-14T07:23:21;21.38;;;15.10;;
70761;SDS011;58360;0.000;0.000;2023-05-14T07:25:48;26.35;;;17.50;;
70761;SDS011;58360;0.000;0.000;2023-05-14T07:28:13;25.13;;;15.95;;
70761;SDS011;58360;0.000;0.000;2023-05-14T07:30:39;23.48;;;16.15;;
70761;SDS011;58360;0.000;0.000;2023-05-14T07:33:05;24.60;;;15.10;;
70761;SDS011;58360;0.000;0.000;2023-05-14T07:35:30;21.95;;;15.65;;
70761;SDS011;58360;0.000;0.000;2023-05-14T07:37:56;24.75;;;15.38;;
70761;SDS011;58360;0.000;0.000;2023-05-14T07:40:22;23.55;;;17.48;;
70761;SDS011;58360;0.000;0.000;2023-05-14T07:42:49;21.80;;;15.93;;
70761;SDS011;58360;0.000;0.000;2023-05-14T07:45:15;26.10;;;16.83;;
70761;SDS011;58360;0.000;0.000;2023-05-14T07:47:40;24.35;;;15.75;;
70761;SDS011;58360;0.000;0.000;2023-05-14T07:50:06;22.50;;;15.20;;
70761;SDS011;58360;0.000;0.000;2023-05-14T07:52:32;21.65;;;16.70;;
70761;SDS011;58360;0.000;0.000;2023-05-14T07:54:58;23.60;;;16.85;;
70761;SDS011;58360;0.000;0.000;2023-05-14T07:57:25;23.00;;;16.83;;
70761;SDS011;58360;0.000;0.000;2023-05-14T07:59:51;25.27;;;16.50;;
70761;SDS011;58360;0.000;0.000;2023-05-14T08:02:17;25.70;;;16.70;;
70761;SDS011;58360;0.000;0.000;2023-05-14T08:04:42;25.13;;;14.60;;
70761;SDS011;58360;0.000;0.000;2023-05-14T08:07:08;24.60;;;15.50;;
70761;SDS011;58360;0.000;0.000;2023-05-14T08:09:34;21.33;;;15.18;;
70761;SDS011;58360;0.000;0.000;2023-05-14T08:12:00;23.98;;;14.23;;
70761;SDS011;58360;0.000;0.000;2023-05-14T08:14:26;20.67;;;14.45;;
70761;SDS011;58360;0.000;0.000;2023-05-14T08:16:52;22.67;;;14.82;;
70761;SDS011;58360;0.000;0.000;2023-05-14T08:19:18;17.65;;;12.38;;
70761;SDS011;58360;0.000;0.000;2023-05-14T08:21:43;21.20;;;14.35;;
70761;SDS011;58360;0.000;0.000;2023-05-14T08:24:09;17.90;;;12.77;;
70761;SDS011;58360;0.000;0.000;2023-05-14T08:26:35;17.95;;;13.90;;
70761;SDS011;58360;0.000;0.000;2023-05-14T08:29:02;19.02;;;12.43;;
70761;SDS011;58360;0.000;0.000;2023-05-14T08:31:28;19.33;;;13.05;;
70761;SDS011;58360;0.000;0.000;2023-05-14T08:33:54;17.73;;;12.68;;
70761;SDS011;58360;0.000;0.000;2023-05-14T08:36:19;18.15;;;13.45;;
70761;SDS011;58360;0.000;0.000;2023-05-14T08:38:48;16.88;;;12.25;;
70761;SDS011;58360;0.000;0.000;2023-05-14T08:41:14;17.10;;;11.88;;
70761;SDS011;58360;0.000;0.000;2023-05-14T08:43:46;14.63;;;11.95;;
70761;SDS011;58360;0.000;0.000;2023-05-14T08:46:14;15.25;;;11.25;;
70761;SDS011;58360;0.000;0.000;2023-05-14T08:48:42;15.32;;;10.90;;
70761;SDS011;58360;0.000;0.000;2023-05-14T08:51:12;18.65;;;12.63;;
70761;SDS011;58360;0.000;0.000;2023-05-14T08:53:38;17.23;;;12.88;;
70761;SDS011;58360;0.000;0.000;2023-05-14T08:56:05;14.68;;;11.90;;
70761;SDS011;58360;0.000;0.000;2023-05-14T08:58:31;22.60;;;12.88;;
70761;SDS011;58360;0.000;0.000;2023-05-14T09:00:57;14.05;;;10.95;;
70761;SDS011;58360;0.000;0.000;2023-05-14T09:03:23;16.13;;;11.40;;
70761;SDS011;58360;0.000;0.000;2023-05-14T09:05:49;16.02;;;12.25;;
70761;SDS011;58360;0.000;0.000;2023-05-14T09:08:16;17.90;;;12.40;;
70761;SDS011;58360;0.000;0.000;2023-05-14T09:10:41;14.45;;;10.02;;
70761;SDS011;58360;0.000;0.000;2023-05-14T09:13:07;16.88;;;11.48;;
70761;SDS011;58360;0.000;0.000;2023-05-14T09:15:34;12.90;;;10.18;;
70761;SDS011;58360;0.000;0.000;2023-05-14T09:18:03;15.43;;;11.43;;
70761;SDS011;58360;0.000;0.000;2023-05-14T09:20:30;16.02;;;12.27;;
70761;SDS011;58360;0.000;0.000;2023-05-14T09:22:56;14.00;;;11.10;;
70761;SDS011;58360;0.000;0.000;2023-05-14T09:25:28;14.35;;;11.20;;
70761;SDS011;58360;0.000;0.000;2023-05-14T09:27:56;15.38;;;11.80;;
70761;SDS011;58360;0.000;0.000;2023-05-14T09:30:22;16.33;;;11.48;;
70761;SDS011;58360;0.000;0.000;2023-05-14T09:32:51;16.63;;;11.50;;
70761;SDS011;58360;0.000;0.000;2023-05-14T09:35:19;15.20;;;11.52;;
70761;SDS011;58360;0.000;0.000;2023-05-14T09:37:46;19.65;;;12.45;;
70761;SDS011;58360;0.000;0.000;2023-05-14T09:40:14;17.20;;;12.80;;
70761;SDS011;58360;0.000;0.000;2023-05-14T09:42:40;19.63;;;11.73;;
70761;SDS011;58360;0.000;0.000;2023-05-14T09:45:07;15.02;;;11.15;;
70761;SDS011;58360;0.000;0.000;2023-05-14T09:47:33;17.48;;;10.90;;
70761;SDS011;58360;0.000;0.000;2023-05-14T09:49:59;11.25;;;9.70;;
70761;SDS011;58360;0.000;0.000;2023-05-14T09:52:25;14.40;;;11.10;;
70761;SDS011;58360;0.000;0.000;2023-05-14T09:54:51;14.82;;;9.70;;
70761;SDS011;58360;0.000;0.000;2023-05-14T09:57:18;15.82;;;9.95;;
70761;SDS011;58360;0.000;0.000;2023-05-14T09:59:44;17.88;;;10.60;;
70761;SDS011;58360;0.000;0.000;2023-05-14T10:02:55;14.85;;;10.60;;
70761;SDS011;58360;0.000;0.000;2023-05-14T10:05:01;13.50;;;10.07;;
70761;SDS011;58360;0.000;0.000;2023-05-14T10:07:30;15.90;;;10.43;;
70761;SDS011;58360;0.000;0.000;2023-05-14T10:10:02;17.25;;;10.73;;
70761;SDS011;58360;0.000;0.000;2023-05-14T10:12:32;16.33;;;11.13;;
70761;SDS011;58360;0.000;0.000;2023-05-14T10:15:02;13.48;;;9.95;;
70761;SDS011;58360;0.000;0.000;2023-05-14T10:17:33;12.73;;;9.27;;
70761;SDS011;58360;0.000;0.000;2023-05-14T10:20:01;13.65;;;8.73;;
70761;SDS011;58360;0.000;0.000;2023-05-14T10:22:30;19.42;;;8.52;;
70761;SDS011;58360;0.000;0.000;2023-05-14T10:24:59;19.17;;;10.70;;
70761;SDS011;58360;0.000;0.000;2023-05-14T10:27:25;14.05;;;10.10;;
70761;SDS011;58360;0.000;0.000;2023-05-14T10:29:52;11.90;;;9.30;;
70761;SDS011;58360;0.000;0.000;2023-05-14T10:32:20;22.80;;;11.18;;
70761;SDS011;58360;0.000;0.000;2023-05-14T10:34:48;17.02;;;11.15;;
70761;SDS011;58360;0.000;0.000;2023-05-14T10:37:15;13.73;;;11.93;;
70761;SDS011;58360;0.000;0.000;2023-05-14T10:42:09;15.35;;;10.60;;
70761;SDS011;58360;0.000;0.000;2023-05-14T10:44:38;18.42;;;13.68;;
70761;SDS011;58360;0.000;0.000;2023-05-14T10:47:06;15.90;;;11.15;;
70761;SDS011;58360;0.000;0.000;2023-05-14T10:49:32;15.80;;;12.18;;
70761;SDS011;58360;0.000;0.000;2023-05-14T10:51:58;17.77;;;12.70;;
70761;SDS011;58360;0.000;0.000;2023-05-14T10:54:26;15.77;;;11.40;;
70761;SDS011;58360;0.000;0.000;2023-05-14T10:56:52;17.40;;;12.27;;
70761;SDS011;58360;0.000;0.000;2023-05-14T10:59:18;18.58;;;11.65;;
70761;SDS011;58360;0.000;0.000;2023-05-14T11:01:44;18.05;;;14.00;;
70761;SDS011;58360;0.000;0.000;2023-05-14T11:04:16;16.83;;;12.43;;
70761;SDS011;58360;0.000;0.000;2023-05-14T11:06:43;17.30;;;13.20;;
70761;SDS011;58360;0.000;0.000;2023-05-14T11:09:12;18.42;;;13.02;;
70761;SDS011;58360;0.000;0.000;2023-05-14T11:11:41;17.38;;;14.25;;
70761;SDS011;58360;0.000;0.000;2023-05-14T11:14:08;16.42;;;14.30;;
70761;SDS011;58360;0.000;0.000;2023-05-14T11:16:34;16.58;;;12.48;;
70761;SDS011;58360;0.000;0.000;2023-05-14T11:19:02;18.38;;;11.88;;
70761;SDS011;58360;0.000;0.000;2023-05-14T11:21:28;17.00;;;12.20;;
70761;SDS011;58360;0.000;0.000;2023-05-14T11:23:56;20.08;;;12.05;;
70761;SDS011;58360;0.000;0.000;2023-05-14T11:26:24;16.60;;;14.45;;
70761;SDS011;58360;0.000;0.000;2023-05-14T11:28:50;17.73;;;14.60;;
70761;SDS011;58360;0.000;0.000;2023-05-14T11:31:16;17.25;;;12.98;;
70761;SDS011;58360;0.000;0.000;2023-05-14T11:33:41;15.38;;;11.93;;
70761;SDS011;58360;0.000;0.000;2023-05-14T11:36:09;14.82;;;12.70;;
70761;SDS011;58360;0.000;0.000;2023-05-14T11:38:44;20.92;;;13.40;;
70761;SDS011;58360;0.000;0.000;2023-05-14T11:41:15;17.08;;;13.77;;
70761;SDS011;58360;0.000;0.000;2023-05-14T11:43:40;18.88;;;15.25;;
70761;SDS011;58360;0.000;0.000;2023-05-14T11:46:06;14.30;;;12.00;;
70761;SDS011;58360;0.000;0.000;2023-05-14T11:48:32;16.85;;;13.57;;
70761;SDS011;58360;0.000;0.000;2023-05-14T11:50:58;15.70;;;13.50;;
70761;SDS011;58360;0.000;0.000;2023-05-14T11:53:25;15.75;;;11.80;;
70761;SDS011;58360;0.000;0.000;2023-05-14T11:55:55;15.18;;;12.85;;
70761;SDS011;58360;0.000;0.000;2023-05-14T11:58:24;16.40;;;13.68;;
70761;SDS011;58360;0.000;0.000;2023-05-14T12:00:50;17.02;;;13.30;;
70761;SDS011;58360;0.000;0.000;2023-05-14T12:03:17;17.35;;;12.88;;
70761;SDS011;58360;0.000;0.000;2023-05-14T12:05:54;17.33;;;12.73;;
70761;SDS011;58360;0.000;0.000;2023-05-14T12:08:30;16.65;;;11.68;;
70761;SDS011;58360;0.000;0.000;2023-05-14T12:10:58;16.25;;;11.80;;
70761;SDS011;58360;0.000;0.000;2023-05-14T12:13:28;17.83;;;12.52;;
70761;SDS011;58360;0.000;0.000;2023-05-14T12:15:56;15.23;;;12.13;;
70761;SDS011;58360;0.000;0.000;2023-05-14T12:18:26;17.35;;;12.75;;
70761;SDS011;58360;0.000;0.000;2023-05-14T12:20:54;15.63;;;12.05;;
70761;SDS011;58360;0.000;0.000;2023-05-14T12:23:24;15.68;;;11.68;;
70761;SDS011;58360;0.000;0.000;2023-05-14T12:25:50;16.17;;;12.40;;
70761;SDS011;58360;0.000;0.000;2023-05-14T12:28:17;15.30;;;10.98;;
70761;SDS011;58360;0.000;0.000;2023-05-14T12:30:44;13.55;;;11.05;;
70761;SDS011;58360;0.000;0.000;2023-05-14T12:33:10;15.73;;;12.40;;
70761;SDS011;58360;0.000;0.000;2023-05-14T12:35:36;23.25;;;12.27;;
70761;SDS011;58360;0.000;0.000;2023-05-14T12:38:02;18.60;;;13.43;;
70761;SDS011;58360;0.000;0.000;2023-05-14T12:40:28;14.90;;;10.38;;
70761;SDS011;58360;0.000;0.000;2023-05-14T12:42:54;15.70;;;10.60;;
70761;SDS011;58360;0.000;0.000;2023-05-14T12:45:20;13.48;;;9.30;;
70761;SDS011;58360;0.000;0.000;2023-05-14T12:47:45;13.80;;;9.13;;
70761;SDS011;58360;0.000;0.000;2023-05-14T12:50:11;23.75;;;11.00;;
70761;SDS011;58360;0.000;0.000;2023-05-14T12:52:37;15.27;;;11.50;;
70761;SDS011;58360;0.000;0.000;2023-05-14T12:55:02;16.20;;;12.00;;
70761;SDS011;58360;0.000;0.000;2023-05-14T12:57:28;15.35;;;10.77;;
70761;SDS011;58360;0.000;0.000;2023-05-14T12:59:54;13.93;;;9.52;;
70761;SDS011;58360;0.000;0.000;2023-05-14T13:02:21;12.43;;;9.43;;
70761;SDS011;58360;0.000;0.000;2023-05-14T13:04:46;14.82;;;8.68;;
70761;SDS011;58360;0.000;0.000;2023-05-14T13:07:12;15.93;;;9.18;;
70761;SDS011;58360;0.000;0.000;2023-05-14T13:09:38;18.80;;;9.88;;
70761;SDS011;58360;0.000;0.000;2023-05-14T13:12:03;17.95;;;9.98;;
70761;SDS011;58360;0.000;0.000;2023-05-14T13:14:29;11.82;;;7.57;;
70761;SDS011;58360;0.000;0.000;2023-05-14T13:16:55;13.80;;;8.73;;
70761;SDS011;58360;0.000;0.000;2023-05-14T13:19:21;15.43;;;8.90;;
70761;SDS011;58360;0.000;0.000;2023-05-14T13:21:47;16.10;;;8.15;;
70761;SDS011;58360;0.000;0.000;2023-05-14T13:24:12;19.83;;;10.02;;
70761;SDS011;58360;0.000;0.000;2023-05-14T13:26:38;18.08;;;9.85;;
70761;SDS011;58360;0.000;0.000;2023-05-14T13:29:04;15.05;;;8.98;;
70761;SDS011;58360;0.000;0.000;2023-05-14T13:31:29;9.95;;;8.00;;
70761;SDS011;58360;0.000;0.000;2023-05-14T13:33:55;22.00;;;10.07;;
70761;SDS011;58360;0.000;0.000;2023-05-14T13:36:23;12.35;;;7.95;;
70761;SDS011;58360;0.000;0.000;2023-05-14T13:38:49;15.13;;;9.05;;
70761;SDS011;58360;0.000;0.000;2023-05-14T13:41:14;14.57;;;8.13;;
70761;SDS011;58360;0.000;0.000;2023-05-14T13:43:40;12.77;;;6.13;;
70761;SDS011;58360;0.000;0.000;2023-05-14T13:46:06;15.90;;;7.70;;
70761;SDS011;58360;0.000;0.000;2023-05-14T13:48:31;13.60;;;6.20;;
70761;SDS011;58360;0.000;0.000;2023-05-14T13:50:58;13.10;;;7.38;;
70761;SDS011;58360;0.000;0.000;2023-05-14T13:53:24;18.15;;;8.57;;
70761;SDS011;58360;0.000;0.000;2023-05-14T13:55:50;14.75;;;8.07;;
70761;SDS011;58360;0.000;0.000;2023-05-14T13:58:25;14.38;;;7.72;;
70761;SDS011;58360;0.000;0.000;2023-05-14T14:00:51;13.18;;;8.05;;
70761;SDS011;58360;0.000;0.000;2023-05-14T14:03:17;14.85;;;7.97;;
70761;SDS011;58360;0.000;0.000;2023-05-14T14:05:43;15.60;;;9.85;;
70761;SDS011;58360;0.000;0.000;2023-05-14T14:08:08;14.45;;;7.75;;
70761;SDS011;58360;0.000;0.000;2023-05-14T14:10:34;15.65;;;8.25;;
70761;SDS011;58360;0.000;0.000;2023-05-14T14:13:00;16.92;;;9.60;;
70761;SDS011;58360;0.000;0.000;2023-05-14T14:15:26;14.65;;;7.97;;
70761;SDS011;58360;0.000;0.000;2023-05-14T14:17:52;13.60;;;8.05;;
70761;SDS011;58360;0.000;0.000;2023-05-14T14:20:17;14.63;;;8.13;;
70761;SDS011;58360;0.000;0.000;2023-05-14T14:22:43;21.17;;;9.10;;
70761;SDS011;58360;0.000;0.000;2023-05-14T14:25:09;18.00;;;8.90;;
70761;SDS011;58360;0.000;0.000;2023-05-14T14:27:36;11.60;;;6.15;;
70761;SDS011;58360;0.000;0.000;2023-05-14T14:30:09;20.00;;;9.20;;
70761;SDS011;58360;0.000;0.000;2023-05-14T14:32:40;17.20;;;9.40;;
70761;SDS011;58360;0.000;0.000;2023-05-14T14:35:07;17.77;;;8.35;;
70761;SDS011;58360;0.000;0.000;2023-05-14T14:37:33;13.57;;;9.02;;
70761;SDS011;58360;0.000;0.000;2023-05-14T14:39:59;16.42;;;8.77;;
70761;SDS011;58360;0.000;0.000;2023-05-14T14:42:24;17.67;;;7.60;;